createdAt,value
2019-02-25T00:03:06.860Z,9.86
2019-02-25T00:08:13.984Z,9.68
2019-02-25T00:13:19.811Z,9.85
2019-02-25T00:18:25.471Z,9.91
2019-02-25T00:23:31.011Z,9.68
2019-02-25T00:28:36.740Z,9.42
2019-02-25T00:33:42.612Z,9.67
2019-02-25T00:38:48.564Z,9.68
2019-02-25T00:43:54.279Z,9.29
2019-02-25T00:49:01.017Z,9.26
2019-02-25T00:54:08.011Z,9.39
2019-02-25T00:59:13.915Z,9.49
2019-02-25T01:04:19.699Z,9.55
2019-02-25T01:09:26.218Z,9.61
2019-02-25T01:14:31.930Z,9.59
2019-02-25T01:19:38.067Z,9.39
2019-02-25T01:24:43.811Z,9.11
2019-02-25T01:29:49.546Z,8.81
2019-02-25T01:34:55.353Z,9.09
2019-02-25T01:40:01.097Z,9.17
2019-02-25T01:45:14.950Z,9.19
2019-02-25T01:50:20.876Z,9.22
2019-02-25T01:55:26.447Z,8.95
2019-02-25T02:00:33.572Z,9.14
2019-02-25T02:05:39.510Z,9.16
2019-02-25T02:10:45.144Z,9.27
2019-02-25T02:15:50.795Z,9.31
2019-02-25T02:20:56.715Z,9.07
2019-02-25T02:26:02.467Z,8.91
2019-02-25T02:31:08.423Z,8.92
2019-02-25T02:36:14.252Z,8.88
2019-02-25T02:41:20.787Z,8.42
2019-02-25T02:46:35.160Z,8.51
2019-02-25T02:51:40.720Z,8.59
2019-02-25T02:56:46.305Z,8.58
2019-02-25T03:01:51.948Z,8.38
2019-02-25T03:06:59.215Z,8.40
2019-02-25T03:12:04.866Z,8.51
2019-02-25T03:17:10.819Z,8.53
2019-02-25T03:22:16.820Z,8.41
2019-02-25T03:27:24.071Z,8.16
2019-02-25T03:32:29.834Z,8.28
2019-02-25T03:37:36.224Z,8.29
2019-02-25T03:42:41.887Z,8.39
2019-02-25T03:47:48.137Z,8.50
2019-02-25T03:52:53.693Z,8.39
2019-02-25T03:57:59.498Z,7.69
2019-02-25T04:03:06.205Z,7.76
2019-02-25T04:08:11.961Z,8.08
2019-02-25T04:13:17.500Z,8.03
2019-02-25T04:18:23.349Z,7.75
2019-02-25T04:23:31.128Z,7.16
2019-02-25T04:28:36.690Z,7.28
2019-02-25T04:33:42.329Z,7.32
2019-02-25T04:38:47.886Z,7.86
2019-02-25T04:43:53.575Z,7.98
2019-02-25T04:48:59.121Z,7.97
2019-02-25T04:54:04.772Z,7.83
2019-02-25T04:59:10.766Z,7.72
2019-02-25T05:04:16.934Z,7.31
2019-02-25T05:09:22.659Z,7.04
2019-02-25T05:14:28.477Z,7.11
2019-02-25T05:19:34.028Z,7.21
2019-02-25T05:24:39.674Z,7.75
2019-02-25T05:29:45.294Z,7.34
2019-02-25T05:34:50.905Z,7.19
2019-02-25T05:39:56.576Z,7.31
2019-02-25T05:45:04.496Z,7.47
2019-02-25T05:50:14.115Z,7.66
2019-02-25T05:55:21.878Z,7.79
2019-02-25T06:00:29.061Z,7.91
2019-02-25T06:05:34.620Z,7.89
2019-02-25T06:10:40.188Z,7.68
2019-02-25T06:15:45.819Z,7.41
2019-02-25T06:20:51.682Z,7.25
2019-02-25T06:25:57.321Z,7.29
2019-02-25T06:31:03.591Z,7.20
2019-02-25T06:36:10.500Z,6.90
2019-02-25T06:41:16.149Z,7.24
2019-02-25T06:46:23.307Z,7.00
2019-02-25T06:51:30.507Z,7.09
2019-02-25T06:56:37.969Z,7.39
2019-02-25T07:01:45.402Z,7.04
2019-02-25T07:06:59.207Z,7.43
2019-02-25T07:12:08.307Z,6.79
2019-02-25T07:17:34.263Z,6.90
2019-02-25T07:22:42.088Z,6.91
2019-02-25T07:27:49.692Z,6.80
2019-02-25T07:33:14.637Z,6.97
2019-02-25T07:38:23.935Z,6.45
2019-02-25T07:43:47.372Z,6.39
2019-02-25T07:49:12.887Z,6.76
2019-02-25T07:54:26.042Z,6.80
2019-02-25T07:59:33.259Z,6.70
2019-02-25T08:04:41.430Z,7.38
2019-02-25T08:09:57.359Z,7.63
2019-02-25T08:15:11.055Z,8.30
2019-02-25T08:20:18.365Z,8.36
2019-02-25T08:25:25.816Z,7.18
2019-02-25T08:30:34.012Z,7.47
2019-02-25T08:35:53.085Z,7.98
2019-02-25T08:41:17.126Z,7.60
2019-02-25T08:46:27.669Z,8.26
2019-02-25T08:51:35.151Z,7.83
2019-02-25T08:56:41.597Z,8.15
2019-02-25T09:01:48.576Z,8.41
2019-02-25T09:06:54.224Z,8.77
2019-02-25T09:12:01.370Z,9.76
2019-02-25T09:17:07.976Z,9.54
2019-02-25T09:22:13.980Z,10.01
2019-02-25T09:27:19.610Z,9.89
2019-02-25T09:32:26.443Z,10.34
2019-02-25T09:37:33.097Z,9.78
2019-02-25T09:42:39.988Z,10.58
2019-02-25T09:47:45.605Z,11.01
2019-02-25T09:52:51.733Z,11.11
2019-02-25T09:57:58.174Z,11.49
2019-02-25T10:03:03.751Z,11.50
2019-02-25T10:08:10.497Z,11.96
2019-02-25T10:13:17.469Z,11.77
2019-02-25T10:18:24.056Z,11.78
2019-02-25T10:23:29.694Z,12.31
2019-02-25T10:28:35.385Z,12.14
2019-02-25T10:33:42.517Z,12.18
2019-02-25T10:38:48.649Z,12.77
2019-02-25T10:43:54.789Z,13.00
2019-02-25T10:49:10.939Z,13.15
2019-02-25T10:54:09.125Z,13.03
2019-02-25T10:59:15.947Z,12.92
2019-02-25T11:04:23.921Z,13.78
2019-02-25T11:09:32.715Z,13.60
2019-02-25T11:14:40.919Z,14.23
2019-02-25T11:19:46.198Z,14.11
2019-02-25T11:24:53.506Z,14.37
2019-02-25T11:30:00.956Z,14.90
2019-02-25T11:35:10.685Z,15.11
2019-02-25T11:40:17.518Z,15.47
2019-02-25T11:45:25.093Z,14.69
2019-02-25T11:50:31.611Z,15.19
2019-02-25T11:55:39.721Z,16.05
2019-02-25T12:00:46.383Z,15.83
2019-02-25T12:05:53.579Z,16.86
2019-02-25T12:10:59.476Z,15.91
2019-02-25T12:16:06.086Z,15.23
2019-02-25T12:21:14.253Z,15.53
2019-02-25T12:26:20.963Z,15.87
2019-02-25T12:31:29.406Z,15.39
2019-02-25T12:36:37.084Z,16.31
2019-02-25T12:41:45.125Z,16.15
2019-02-25T12:46:53.254Z,16.10
2019-02-25T12:52:00.268Z,16.75
2019-02-25T12:57:07.219Z,16.32
2019-02-25T13:02:13.643Z,16.47
2019-02-25T13:07:19.722Z,16.18
2019-02-25T13:12:26.778Z,17.31
2019-02-25T13:17:33.199Z,16.70
2019-02-25T13:22:40.584Z,16.62
2019-02-25T13:27:46.484Z,16.88
2019-02-25T13:32:53.397Z,16.27
2019-02-25T13:37:59.833Z,16.68
2019-02-25T13:43:06.111Z,16.86
2019-02-25T13:48:11.999Z,17.16
2019-02-25T13:53:19.431Z,16.91
2019-02-25T13:58:25.394Z,17.35
2019-02-25T14:03:31.073Z,16.35
2019-02-25T14:08:36.885Z,16.48
2019-02-25T14:13:45.210Z,16.53
2019-02-25T14:18:52.310Z,16.78
2019-02-25T14:23:59.839Z,17.05
2019-02-25T14:29:08.022Z,17.43
2019-02-25T14:34:15.629Z,18.01
2019-02-25T14:39:27.569Z,17.54
2019-02-25T14:44:35.387Z,17.80
2019-02-25T14:49:42.946Z,17.36
2019-02-25T14:54:48.802Z,18.11
2019-02-25T14:59:55.814Z,18.64
2019-02-25T15:05:03.031Z,18.27
2019-02-25T15:10:11.128Z,17.62
2019-02-25T15:15:25.183Z,16.86
2019-02-25T15:20:31.450Z,17.93
2019-02-25T15:25:42.117Z,16.89
2019-02-25T15:30:47.104Z,17.46
2019-02-25T15:35:54.596Z,17.36
2019-02-25T15:41:04.428Z,17.13
2019-02-25T15:46:12.395Z,17.13
2019-02-25T15:51:20.375Z,17.38
2019-02-25T15:56:33.361Z,17.72
2019-02-25T16:01:39.141Z,17.73
2019-02-25T16:06:45.976Z,18.10
2019-02-25T16:11:55.367Z,17.25
2019-02-25T16:17:01.667Z,17.31
2019-02-25T16:22:11.760Z,17.60
2019-02-25T16:27:21.075Z,16.26
2019-02-25T16:32:27.729Z,16.40
2019-02-25T16:37:35.565Z,16.00
2019-02-25T16:42:42.631Z,15.64
2019-02-25T16:47:50.963Z,15.27
2019-02-25T16:52:57.863Z,14.79
2019-02-25T16:58:06.164Z,15.24
2019-02-25T17:03:13.793Z,14.86
2019-02-25T17:08:24.004Z,14.55
2019-02-25T17:13:32.495Z,14.34
2019-02-25T17:18:39.845Z,14.68
2019-02-25T17:23:46.399Z,14.75
2019-02-25T17:28:52.528Z,14.52
2019-02-25T17:33:59.383Z,14.32
2019-02-25T17:39:08.728Z,14.23
2019-02-25T17:44:17.864Z,14.02
2019-02-25T17:49:23.185Z,13.48
2019-02-25T17:54:31.228Z,13.95
2019-02-25T17:59:39.265Z,13.61
2019-02-25T18:04:47.115Z,13.49
2019-02-25T18:09:54.906Z,13.69
2019-02-25T18:15:01.484Z,13.34
2019-02-25T18:20:11.923Z,13.30
2019-02-25T18:25:20.489Z,13.34
2019-02-25T18:30:33.314Z,13.06
2019-02-25T18:35:41.629Z,13.27
2019-02-25T18:40:49.223Z,13.22
2019-02-25T18:45:56.320Z,13.03
2019-02-25T18:51:03.639Z,13.38
2019-02-25T18:56:14.151Z,13.15
2019-02-25T19:01:20.714Z,12.78
2019-02-25T19:06:26.607Z,13.00
2019-02-25T19:11:32.840Z,12.89
2019-02-25T19:16:40.041Z,13.17
2019-02-25T19:21:47.860Z,12.88
2019-02-25T19:26:55.016Z,13.02
2019-02-25T19:32:01.693Z,12.91
2019-02-25T19:37:11.930Z,12.93
2019-02-25T19:42:19.785Z,13.27
2019-02-25T19:47:24.605Z,13.30
2019-02-25T19:52:34.742Z,12.80
2019-02-25T19:57:38.659Z,12.60
2019-02-25T20:02:47.981Z,12.35
2019-02-25T20:07:56.522Z,12.09
2019-02-25T20:13:08.515Z,12.21
2019-02-25T20:18:14.347Z,12.35
2019-02-25T20:23:23.983Z,12.27
2019-02-25T20:28:28.235Z,12.04
2019-02-25T20:33:35.200Z,12.10
2019-02-25T20:38:43.796Z,11.95
2019-02-25T20:43:53.971Z,12.23
2019-02-25T20:48:59.937Z,12.03
2019-02-25T20:54:06.113Z,11.92
2019-02-25T20:59:11.745Z,12.24
2019-02-25T21:04:21.794Z,12.23
2019-02-25T21:09:27.304Z,11.74
2019-02-25T21:14:35.671Z,11.93
2019-02-25T21:19:44.285Z,11.98
2019-02-25T21:24:53.974Z,11.97
2019-02-25T21:29:58.985Z,12.10
2019-02-25T21:35:10.214Z,12.26
2019-02-25T21:40:17.606Z,11.89
2019-02-25T21:45:25.166Z,11.73
2019-02-25T21:50:33.533Z,11.44
2019-02-25T21:55:38.509Z,11.34
2019-02-25T22:00:44.474Z,11.85
2019-02-25T22:05:51.744Z,11.43
2019-02-25T22:11:11.647Z,11.46
2019-02-25T22:16:07.915Z,12.02
2019-02-25T22:21:14.179Z,11.63
2019-02-25T22:26:24.121Z,11.49
2019-02-25T22:31:28.724Z,10.98
2019-02-25T22:36:34.719Z,11.17
2019-02-25T22:41:42.297Z,10.80
2019-02-25T22:46:47.949Z,10.70
2019-02-25T22:51:55.767Z,11.06
2019-02-25T22:57:00.962Z,10.33
2019-02-25T23:02:08.773Z,10.12
2019-02-25T23:07:15.240Z,10.31
2019-02-25T23:12:24.276Z,10.06
2019-02-25T23:17:35.100Z,10.11
2019-02-25T23:22:39.588Z,10.46
2019-02-25T23:27:45.555Z,10.07
2019-02-25T23:32:52.362Z,10.08
2019-02-25T23:38:00.861Z,10.27
2019-02-25T23:43:07.487Z,11.22
2019-02-25T23:48:15.214Z,10.89
2019-02-25T23:53:20.788Z,10.51
2019-02-25T23:58:26.638Z,10.59
